Flugplatz Stuttgart

Bericht für EDDS

vom 12.12. um 22:50 UTC

Wind 6 kt aus 50°

Sichtweite 10 km oder mehr

aufgelockert bewölkt in 1400 ft

Temperatur -1.0°C

Taupunkt -2.0°C

Luftfeuchtigkeit 93%

Luftdruck 1019 hPa

EDDS 122250Z 05006KT 9999 SCT014 M01/M02 Q1019

Prognose für EDDS

vom 12.12. um 17:00 UTC

Am 12.12. zwischen 18:00 UTC und 18:00 UTC

Wind 7 kt aus 40°

Sichtweite 10 km oder mehr

aufgebrochene Bewölkung in 2500 ft


Am 12.12. zwischen 22:00 UTC und 09:00 UTC zeitweise

aufgebrochene Bewölkung in 1400 ft

TAF EDDS 121700Z 1218/1318 04007KT 9999 BKN025 TEMPO 1222/1309 BKN014
Impressum